Time;durP1;ratioP1;P1;durP2;ratioP2;P2;SDS_P1;SDS_P2;PMS_P1;PMS_P2;Temp;Humidity;BMP_temperature;BMP_pressure;BME280_temperature;BME280_humidity;BME280_pressure;Samples;Min_cycle;Max_cycle;Signal;HPM_P1;HPM_P2
2023/01/17 00:00:13;;;;;;;;;2.00;2.00;;;;;20.13;60.26;98193.67;110574;1266;18982;-81
2023/01/17 00:03:01;;;;;;;;;2.33;2.33;;;;;20.14;60.08;98193.86;110552;1267;21989;-82
2023/01/17 00:11:13;;;;;;;;;3.00;3.00;;;;;20.13;60.28;98189.00;109486;1272;24381;-81
2023/01/17 00:13:41;;;;;;;;;3.00;3.00;;;;;20.13;60.07;98190.30;109528;1256;19687;-81
2023/01/17 00:16:09;;;;;;;;;1.50;1.50;;;;;20.13;60.23;98185.90;109548;1263;20248;-81
2023/01/17 00:18:36;;;;;;;;;3.50;3.00;;;;;20.12;60.27;98181.90;109534;1271;19744;-81
2023/01/17 00:26:34;;;;;;;;;3.00;3.00;;;;;20.13;60.18;98173.44;109482;1256;20824;-82
2023/01/17 01:35:45;;;;;;;;;3.00;3.00;;;;;20.08;59.89;98072.50;110500;1267;20295;-82
2023/01/17 01:38:12;;;;;;;;;3.00;1.00;;;;;20.07;59.80;98071.13;110534;1253;19712;-82
2023/01/17 01:40:40;;;;;;;;;3.00;3.00;;;;;20.07;60.08;98065.24;110477;1266;19555;-81
2023/01/17 01:43:07;;;;;;;;;3.00;3.00;;;;;20.07;59.93;98069.92;110495;1267;19940;-82
2023/01/17 01:45:35;;;;;;;;;3.00;3.00;;;;;20.07;59.88;98075.48;110500;1254;23224;-82
2023/01/17 01:48:02;;;;;;;;;2.00;2.00;;;;;20.06;59.85;98068.86;110567;1251;19689;-82
2023/01/17 01:50:30;;;;;;;;;3.00;3.00;;;;;20.06;59.90;98065.39;110537;1266;18956;-81
2023/01/17 01:52:57;;;;;;;;;4.00;2.00;;;;;20.06;59.97;98059.25;110452;1254;20784;-81
2023/01/17 01:55:25;;;;;;;;;1.00;1.00;;;;;20.07;59.93;98051.22;110447;1266;19763;-82
2023/01/17 01:57:52;;;;;;;;;3.00;3.00;;;;;20.07;59.88;98047.46;110463;1252;20986;-81
2023/01/17 02:00:20;;;;;;;;;3.00;3.00;;;;;20.07;59.92;98045.61;110521;1251;20068;-81
2023/01/17 02:02:47;;;;;;;;;2.00;2.00;;;;;20.07;59.72;98041.20;110491;1253;20622;-82
2023/01/17 02:05:15;;;;;;;;;3.00;3.00;;;;;20.06;59.71;98032.22;110474;1266;19967;-81
2023/01/17 02:07:42;;;;;;;;;3.67;3.00;;;;;20.05;59.93;98024.26;110486;1250;19404;-82
2023/01/17 02:10:10;;;;;;;;;3.00;3.00;;;;;20.05;59.99;98022.69;110451;1252;18411;-82
2023/01/17 02:12:37;;;;;;;;;1.00;1.00;;;;;20.05;59.78;98014.02;110451;1266;18818;-81
2023/01/17 02:15:05;;;;;;;;;1.00;1.00;;;;;20.05;59.68;98013.54;110519;1253;20849;-82
2023/01/17 02:17:32;;;;;;;;;1.00;1.00;;;;;20.06;59.66;98018.13;110497;1266;20323;-82
2023/01/17 02:20:00;;;;;;;;;3.00;3.00;;;;;20.07;59.84;98011.45;110469;1251;22338;-81
2023/01/17 02:22:27;;;;;;;;;3.00;3.00;;;;;20.06;59.92;98006.34;110434;1260;20277;-81
2023/01/17 02:24:54;;;;;;;;;1.00;1.00;;;;;20.06;59.71;98005.69;110414;1263;18636;-81
2023/01/17 02:27:22;;;;;;;;;1.33;1.33;;;;;20.06;59.72;97998.77;110519;1266;20328;-82
2023/01/17 02:29:49;;;;;;;;;3.00;3.00;;;;;20.05;59.77;97993.55;110478;1251;20809;-82
2023/01/17 02:32:17;;;;;;;;;6.00;3.00;;;;;20.04;59.59;97988.89;110424;1266;21685;-81
2023/01/17 02:34:44;;;;;;;;;4.00;3.00;;;;;20.04;59.73;97981.92;110477;1267;19117;-81
2023/01/17 02:37:12;;;;;;;;;3.00;3.00;;;;;20.05;59.67;97975.44;110428;1253;20960;-81
2023/01/17 02:39:39;;;;;;;;;1.00;1.00;;;;;20.04;59.76;97971.44;110494;1266;19887;-82
2023/01/17 02:42:07;;;;;;;;;3.00;3.00;;;;;20.05;59.70;97969.17;110537;1254;19885;-82
2023/01/17 02:44:34;;;;;;;;;3.00;3.00;;;;;20.03;59.70;97966.46;110492;1251;19508;-81
2023/01/17 02:47:02;;;;;;;;;2.00;2.00;;;;;20.05;59.60;97963.40;110388;1266;19524;-81
2023/01/17 02:49:29;;;;;;;;;3.00;3.00;;;;;20.04;59.44;97961.36;110502;1254;19932;-81
2023/01/17 02:51:56;;;;;;;;;3.00;3.00;;;;;20.04;59.57;97960.45;110461;1253;21002;-81
2023/01/17 02:54:24;;;;;;;;;1.00;1.00;;;;;20.03;59.53;97954.39;110501;1266;22772;-81
2023/01/17 02:56:52;;;;;;;;;3.00;3.00;;;;;20.04;59.61;97952.45;110457;1266;18645;-82
2023/01/17 02:59:19;;;;;;;;;1.00;1.00;;;;;20.03;59.35;97956.30;110481;1254;19456;-81
2023/01/17 03:01:46;;;;;;;;;2.00;2.00;;;;;20.03;59.37;97954.77;110438;1250;18413;-82
2023/01/17 03:04:14;;;;;;;;;1.00;1.00;;;;;20.04;59.42;97948.69;110464;1266;18950;-81
2023/01/17 03:06:41;;;;;;;;;1.00;1.00;;;;;20.04;59.52;97947.77;110436;1254;21285;-81
2023/01/17 03:09:09;;;;;;;;;3.00;3.00;;;;;20.04;59.38;97946.96;110464;1266;18404;-82
2023/01/17 03:11:36;;;;;;;;;3.00;3.00;;;;;20.04;59.55;97947.23;110502;1266;21243;-81
2023/01/17 03:14:04;;;;;;;;;3.00;3.00;;;;;20.04;59.53;97947.22;110492;1266;19482;-81
2023/01/17 03:16:31;;;;;;;;;3.00;3.00;;;;;20.02;59.39;97942.90;110500;1254;19609;-81
2023/01/17 03:18:59;;;;;;;;;3.00;3.00;;;;;20.03;59.38;97941.88;110493;1251;18598;-81
2023/01/17 03:21:26;;;;;;;;;3.00;3.00;;;;;20.03;59.46;97940.09;110556;1266;19324;-81
2023/01/17 03:23:54;;;;;;;;;3.00;3.00;;;;;20.02;59.51;97939.86;110454;1266;18419;-81
2023/01/17 03:26:22;;;;;;;;;3.00;3.00;;;;;20.02;59.45;97936.98;110392;1266;19003;-81
2023/01/17 03:28:49;;;;;;;;;3.00;3.00;;;;;20.02;59.47;97933.00;110443;1266;19545;-81
2023/01/17 03:31:18;;;;;;;;;1.00;1.00;;;;;20.01;59.24;97933.76;110494;1266;19365;-81
2023/01/17 03:33:46;;;;;;;;;3.00;3.00;;;;;20.02;59.30;97934.80;110513;1266;21239;-81
2023/01/17 03:36:13;;;;;;;;;1.00;1.00;;;;;20.01;59.41;97933.59;110577;1266;20831;-81
2023/01/17 03:38:41;;;;;;;;;1.00;1.00;;;;;20.00;59.32;97925.16;110505;1251;23229;-81
2023/01/17 03:41:08;;;;;;;;;1.00;1.00;;;;;20.01;59.38;97919.67;110511;1266;19223;-81
2023/01/17 03:43:36;;;;;;;;;3.00;3.00;;;;;20.00;59.24;97923.68;110460;1266;19377;-81
2023/01/17 03:46:03;;;;;;;;;3.00;3.00;;;;;19.99;59.50;97928.23;110520;1266;18373;-81
2023/01/17 03:48:31;;;;;;;;;3.00;3.00;;;;;20.00;59.28;97930.70;110550;1266;18822;-81
2023/01/17 03:50:58;;;;;;;;;1.00;1.00;;;;;20.00;59.30;97928.05;110522;1260;21323;-81
2023/01/17 03:53:26;;;;;;;;;3.00;3.00;;;;;20.01;59.04;97928.95;110465;1250;21617;-81
2023/01/17 03:55:53;;;;;;;;;3.00;3.00;;;;;20.02;59.20;97924.46;110477;1266;18901;-81
2023/01/17 03:58:20;;;;;;;;;3.00;3.00;;;;;20.00;59.36;97921.58;110508;1267;19361;-81
2023/01/17 04:00:48;;;;;;;;;3.00;3.00;;;;;20.01;59.40;97917.83;110448;1267;18575;-82
2023/01/17 04:03:15;;;;;;;;;3.00;3.00;;;;;20.00;59.26;97917.92;110543;1252;20323;-81
2023/01/17 04:05:43;;;;;;;;;3.00;3.00;;;;;20.00;59.13;97915.85;110496;1266;20894;-81
2023/01/17 04:08:10;;;;;;;;;3.00;3.00;;;;;20.00;59.39;97912.75;110497;1266;18485;-81
2023/01/17 04:10:38;;;;;;;;;1.00;1.00;;;;;20.00;59.13;97909.06;110519;1254;19231;-81
2023/01/17 04:13:05;;;;;;;;;1.00;1.00;;;;;20.00;59.10;97903.89;110553;1266;19389;-81
2023/01/17 04:15:33;;;;;;;;;3.00;3.00;;;;;19.99;59.34;97893.44;110550;1259;18505;-81
2023/01/17 04:18:00;;;;;;;;;3.00;3.00;;;;;19.99;59.17;97893.55;110500;1266;20769;-81
2023/01/17 04:20:28;;;;;;;;;3.00;3.00;;;;;19.99;59.16;97897.56;110506;1266;19270;-81
2023/01/17 04:22:56;;;;;;;;;3.00;3.00;;;;;19.99;59.26;97899.31;110548;1267;18515;-81
2023/01/17 04:25:24;;;;;;;;;3.00;3.00;;;;;19.99;59.21;97895.45;110500;1266;18623;-81
2023/01/17 04:27:52;;;;;;;;;3.00;3.00;;;;;19.99;59.00;97896.38;110459;1252;19788;-81
2023/01/17 04:30:19;;;;;;;;;4.00;3.00;;;;;19.99;59.42;97889.57;110556;1261;19893;-81
2023/01/17 04:32:47;;;;;;;;;4.00;3.00;;;;;20.00;59.23;97886.11;110473;1260;20490;-81
2023/01/17 04:35:14;;;;;;;;;3.00;3.00;;;;;19.99;59.05;97881.16;110399;1266;20729;-81
2023/01/17 04:37:42;;;;;;;;;3.00;3.00;;;;;20.00;59.18;97880.73;110469;1266;23867;-81
2023/01/17 04:40:09;;;;;;;;;3.00;3.00;;;;;19.99;59.13;97874.85;110490;1266;18850;-82
2023/01/17 04:42:37;;;;;;;;;3.00;1.00;;;;;19.98;58.98;97872.39;110548;1259;19391;-81
2023/01/17 04:45:04;;;;;;;;;3.00;3.00;;;;;19.98;58.87;97869.67;110494;1266;19537;-82
2023/01/17 04:47:31;;;;;;;;;3.50;3.00;;;;;19.98;59.16;97865.15;110435;1266;18865;-81
2023/01/17 04:49:59;;;;;;;;;3.00;3.00;;;;;19.99;59.03;97862.51;110468;1266;19362;-82
2023/01/17 04:52:26;;;;;;;;;3.00;3.00;;;;;19.98;59.15;97869.52;110512;1266;19912;-82
2023/01/17 04:54:54;;;;;;;;;1.00;1.00;;;;;19.99;59.19;97875.98;110426;1267;21351;-81
2023/01/17 04:57:21;;;;;;;;;4.00;4.00;;;;;19.98;59.00;97878.62;110494;1266;19371;-82
2023/01/17 04:59:49;;;;;;;;;1.00;1.00;;;;;19.98;58.84;97877.70;110435;1266;18810;-81
2023/01/17 05:02:16;;;;;;;;;3.00;3.00;;;;;19.99;59.05;97890.45;110411;1266;21473;-82
2023/01/17 05:04:44;;;;;;;;;4.00;3.50;;;;;19.99;58.94;97889.52;110496;1266;19378;-82
2023/01/17 05:07:11;;;;;;;;;3.00;2.00;;;;;19.99;59.07;97893.38;110453;1266;19753;-81
2023/01/17 05:09:39;;;;;;;;;4.00;3.00;;;;;19.98;58.96;97894.52;110495;1263;18666;-81
2023/01/17 05:12:06;;;;;;;;;3.00;3.00;;;;;19.98;58.82;97895.65;110542;1266;19595;-81
2023/01/17 05:14:34;;;;;;;;;3.00;3.00;;;;;19.98;58.78;97902.05;110500;1254;18521;-81
2023/01/17 05:17:02;;;;;;;;;3.00;3.00;;;;;19.99;58.90;97909.76;110489;1260;18655;-82
2023/01/17 05:19:29;;;;;;;;;3.00;3.00;;;;;19.98;58.79;97903.63;110421;1267;19887;-81
2023/01/17 05:22:02;;;;;;;;;2.33;2.33;;;;;19.97;58.78;97905.94;110452;1266;18332;-81
2023/01/17 05:24:31;;;;;;;;;1.00;1.00;;;;;19.96;59.02;97903.48;110521;1251;20040;-82
2023/01/17 05:27:01;;;;;;;;;3.00;3.00;;;;;19.97;58.93;97897.80;110458;1260;19300;-81
2023/01/17 05:29:29;;;;;;;;;3.00;3.00;;;;;19.97;58.95;97903.86;110448;1266;18522;-81
2023/01/17 05:31:57;;;;;;;;;3.00;3.00;;;;;19.97;58.86;97903.11;110414;1259;18696;-81
2023/01/17 05:34:24;;;;;;;;;3.00;3.00;;;;;19.96;58.78;97897.22;110436;1260;19255;-81
2023/01/17 05:36:52;;;;;;;;;4.00;4.00;;;;;19.96;58.94;97897.77;110480;1258;18412;-82
2023/01/17 05:39:19;;;;;;;;;3.00;3.00;;;;;19.97;58.83;97895.33;110569;1263;18841;-81
2023/01/17 05:41:47;;;;;;;;;5.00;3.00;;;;;19.98;58.71;97894.65;110451;1266;20924;-82
2023/01/17 05:44:15;;;;;;;;;3.00;3.00;;;;;19.97;58.69;97893.27;110487;1266;23187;-81
2023/01/17 05:46:42;;;;;;;;;3.00;3.00;;;;;19.97;58.82;97894.74;110462;1260;18602;-82
2023/01/17 05:49:10;;;;;;;;;1.00;1.00;;;;;19.95;58.76;97898.24;110509;1251;20824;-81
2023/01/17 05:51:38;;;;;;;;;3.00;3.00;;;;;19.96;58.82;97903.59;110441;1267;18437;-81
2023/01/17 05:54:06;;;;;;;;;3.00;3.00;;;;;19.96;58.73;97904.45;110365;1266;162152;-82
2023/01/17 05:56:33;;;;;;;;;1.67;1.67;;;;;19.96;58.84;97908.85;110472;1266;19339;-81
2023/01/17 05:59:01;;;;;;;;;1.00;1.00;;;;;19.96;58.88;97914.29;110450;1252;18350;-82
2023/01/17 06:01:28;;;;;;;;;3.00;3.00;;;;;19.96;58.95;97913.32;110453;1267;18886;-81
2023/01/17 06:03:56;;;;;;;;;5.00;3.00;;;;;19.95;58.77;97914.39;110490;1253;19389;-81
2023/01/17 06:06:23;;;;;;;;;3.00;1.00;;;;;19.96;58.77;97912.77;110506;1267;18562;-81
2023/01/17 06:08:51;;;;;;;;;3.00;3.00;;;;;19.97;58.85;97910.17;110487;1251;19300;-82
2023/01/17 06:11:18;;;;;;;;;2.33;2.33;;;;;19.96;58.87;97904.84;110417;1266;19377;-81
2023/01/17 06:13:46;;;;;;;;;1.00;1.00;;;;;19.96;58.67;97908.30;110490;1260;18316;-81
2023/01/17 06:16:13;;;;;;;;;3.00;3.00;;;;;19.96;58.66;97910.38;110477;1253;20030;-82
2023/01/17 06:18:41;;;;;;;;;3.00;3.00;;;;;19.96;58.79;97912.02;110492;1251;21003;-81
2023/01/17 06:21:09;;;;;;;;;3.00;3.00;;;;;19.97;58.90;97913.77;110561;1260;18562;-82
2023/01/17 06:23:36;;;;;;;;;3.67;3.00;;;;;19.96;58.65;97914.77;110546;1266;18936;-81
2023/01/17 06:26:04;;;;;;;;;3.00;3.00;;;;;19.95;58.68;97919.99;110485;1251;19608;-81
2023/01/17 06:28:31;;;;;;;;;1.00;1.00;;;;;19.96;58.69;97918.27;110550;1266;18404;-81
2023/01/17 06:30:59;;;;;;;;;3.00;3.00;;;;;19.96;58.63;97924.18;110468;1251;18677;-81
2023/01/17 06:33:27;;;;;;;;;3.00;3.00;;;;;19.95;58.78;97929.77;110538;1266;22216;-81
2023/01/17 06:35:54;;;;;;;;;4.00;3.00;;;;;19.95;58.78;97925.09;110458;1267;18356;-81
2023/01/17 06:38:22;;;;;;;;;3.00;3.00;;;;;19.96;58.58;97929.18;110472;1266;19000;-81
2023/01/17 06:40:49;;;;;;;;;1.00;1.00;;;;;19.96;58.81;97935.61;110467;1266;21630;-81
2023/01/17 06:43:17;;;;;;;;;3.00;3.00;;;;;19.95;58.86;97933.95;110481;1267;18524;-80
2023/01/17 06:45:44;;;;;;;;;3.00;3.00;;;;;19.95;58.69;97936.67;110454;1267;20050;-81
2023/01/17 06:48:11;;;;;;;;;3.00;3.00;;;;;19.95;58.67;97930.33;110533;1266;19245;-81
2023/01/17 06:50:39;;;;;;;;;2.00;2.00;;;;;19.94;58.68;97928.60;110453;1251;19573;-81
2023/01/17 06:53:07;;;;;;;;;1.00;1.00;;;;;19.95;58.63;97931.83;110479;1253;18660;-81
2023/01/17 06:55:34;;;;;;;;;3.00;3.00;;;;;19.95;58.58;97929.23;110513;1266;19485;-81
2023/01/17 06:58:02;;;;;;;;;1.00;1.00;;;;;19.95;58.54;97926.83;110430;1254;19516;-81
2023/01/17 07:00:29;;;;;;;;;3.00;3.00;;;;;19.95;58.80;97927.37;110399;1266;18832;-81
2023/01/17 07:02:57;;;;;;;;;3.00;3.00;;;;;19.95;58.76;97932.88;110373;1250;21187;-81
2023/01/17 07:05:24;;;;;;;;;3.00;3.00;;;;;19.94;58.46;97934.10;110397;1259;18411;-80
2023/01/17 07:07:52;;;;;;;;;3.00;3.00;;;;;19.94;58.76;97939.00;110460;1251;20062;-82
2023/01/17 07:10:19;;;;;;;;;3.00;3.00;;;;;19.94;58.70;97940.85;110429;1250;22702;-82
2023/01/17 07:12:47;;;;;;;;;3.00;3.00;;;;;19.97;58.50;97939.86;110684;1266;20053;-83
2023/01/17 07:15:14;;;;;;;;;3.00;3.00;;;;;20.01;58.64;97940.55;110506;1260;18547;-82
2023/01/17 07:17:42;;;;;;;;;3.00;3.00;;;;;20.05;58.63;97942.19;110521;1266;19379;-84
2023/01/17 07:20:09;;;;;;;;;3.00;3.00;;;;;20.06;58.89;97941.36;110547;1253;19701;-84
2023/01/17 07:22:37;;;;;;;;;3.50;3.50;;;;;20.10;58.80;97940.74;110536;1266;18955;-82
2023/01/17 07:25:04;;;;;;;;;3.00;3.00;;;;;20.13;59.03;97948.90;110539;1267;19737;-85
2023/01/17 07:27:32;;;;;;;;;2.00;2.00;;;;;20.14;59.38;97944.08;110524;1251;18395;-82
2023/01/17 07:29:59;;;;;;;;;3.00;3.00;;;;;20.15;59.28;97946.48;110447;1267;18791;-83
2023/01/17 07:32:27;;;;;;;;;4.00;3.00;;;;;20.18;59.41;97941.34;110474;1253;21269;-83
2023/01/17 07:34:56;;;;;;;;;2.00;2.00;;;;;20.18;59.41;97943.80;110357;1253;19674;-83
2023/01/17 07:37:24;;;;;;;;;4.00;4.00;;;;;20.16;59.48;97940.86;110420;1266;18653;-84
2023/01/17 07:39:52;;;;;;;;;3.00;3.00;;;;;20.14;59.50;97941.95;110441;1260;19672;-84
2023/01/17 07:42:20;;;;;;;;;1.00;1.00;;;;;20.11;59.49;97943.14;110499;1252;19574;-82
2023/01/17 07:44:47;;;;;;;;;3.00;3.00;;;;;20.10;59.47;97947.22;110478;1259;20860;-82
2023/01/17 07:47:15;;;;;;;;;3.00;3.00;;;;;20.09;59.80;97949.13;110529;1260;20843;-83
2023/01/17 07:49:42;;;;;;;;;4.50;4.50;;;;;20.12;59.52;97952.84;110389;1266;19069;-82
2023/01/17 07:52:10;;;;;;;;;4.00;2.00;;;;;20.12;59.44;97955.85;110499;1251;25240;-82
2023/01/17 07:54:37;;;;;;;;;3.00;3.00;;;;;20.10;59.49;97955.26;110422;1267;19642;-82
2023/01/17 07:57:15;;;;;;;;;3.00;3.00;;;;;20.09;59.70;97955.02;110456;1251;18254;-82
2023/01/17 07:59:58;;;;;;;;;3.00;1.00;;;;;20.07;59.54;97956.34;110427;1266;18706;-83
2023/01/17 08:02:27;;;;;;;;;3.00;3.00;;;;;20.06;59.56;97954.30;110380;1250;21180;-84
2023/01/17 08:04:55;;;;;;;;;3.00;3.00;;;;;20.04;59.79;97954.25;110426;1260;19585;-83
2023/01/17 08:07:22;;;;;;;;;3.00;3.00;;;;;20.04;59.58;97960.23;110444;1251;18940;-83
2023/01/17 08:09:50;;;;;;;;;3.00;3.00;;;;;20.03;59.80;97955.38;110434;1260;19523;-83
2023/01/17 08:12:18;;;;;;;;;3.00;3.00;;;;;20.01;59.62;97954.42;110471;1251;19924;-84
2023/01/17 08:14:45;;;;;;;;;3.00;3.00;;;;;20.01;59.66;97956.64;110438;1251;18893;-83
2023/01/17 08:17:13;;;;;;;;;3.00;3.00;;;;;20.01;59.57;97958.98;110433;1251;21163;-83
2023/01/17 08:19:40;;;;;;;;;3.00;3.00;;;;;20.01;59.62;97961.66;110395;1263;18518;-83
2023/01/17 08:22:08;;;;;;;;;3.00;3.00;;;;;20.00;59.38;97961.46;110455;1251;21598;-83
2023/01/17 08:24:36;;;;;;;;;4.00;3.00;;;;;20.00;59.60;97963.73;110478;1252;21730;-84
2023/01/17 08:27:03;;;;;;;;;3.00;3.00;;;;;20.01;59.68;97965.39;110355;1266;18421;-83
2023/01/17 08:29:31;;;;;;;;;4.00;3.00;;;;;20.00;59.46;97968.11;110393;1266;20091;-83
2023/01/17 08:31:58;;;;;;;;;3.00;3.00;;;;;20.01;59.50;97970.40;110427;1266;19501;-83
2023/01/17 08:34:26;;;;;;;;;3.00;3.00;;;;;20.02;59.56;97972.14;110428;1251;21036;-83
2023/01/17 08:36:53;;;;;;;;;3.00;3.00;;;;;20.01;59.20;97974.42;110417;1253;22183;-83
2023/01/17 08:39:21;;;;;;;;;3.00;2.33;;;;;20.00;59.31;97976.95;110526;1251;21110;-83
2023/01/17 08:41:48;;;;;;;;;1.00;1.00;;;;;20.00;59.32;97980.71;110457;1266;18727;-84
2023/01/17 08:44:16;;;;;;;;;4.00;4.00;;;;;20.00;59.37;97983.98;110531;1267;19941;-84
2023/01/17 08:46:44;;;;;;;;;3.00;3.00;;;;;19.99;59.18;97986.46;110484;1266;19598;-83
2023/01/17 08:49:11;;;;;;;;;4.00;4.00;;;;;20.02;59.22;97981.29;110523;1251;23697;-84
2023/01/17 08:51:39;;;;;;;;;3.50;3.50;;;;;20.05;59.20;97980.75;110551;1267;21825;-82
2023/01/17 08:54:06;;;;;;;;;3.00;3.00;;;;;20.13;59.55;97985.93;110154;1267;20951;-85
2023/01/17 08:56:34;;;;;;;;;52.50;42.00;;;;;20.16;59.53;97988.60;110262;1266;18659;-83
2023/01/17 08:59:03;;;;;;;;;102.50;73.00;;;;;20.19;59.38;97989.05;110713;1252;18745;-83
2023/01/17 09:01:40;;;;;;;;;98.50;73.00;;;;;20.18;59.38;97990.33;110677;1266;19443;-84
2023/01/17 09:04:08;;;;;;;;;112.00;77.00;;;;;20.18;59.50;97988.98;110689;1251;19301;-82
2023/01/17 09:06:36;;;;;;;;;123.00;91.00;;;;;20.19;59.57;97989.05;110659;1252;22058;-86
2023/01/17 09:09:04;;;;;;;;;117.50;84.00;;;;;20.22;59.54;97992.61;110459;1264;22358;-80
2023/01/17 09:11:31;;;;;;;;;100.50;73.50;;;;;20.24;59.70;97995.59;110304;1266;19217;-79
2023/01/17 09:14:00;;;;;;;;;91.50;63.00;;;;;20.25;59.90;98000.22;110403;1250;30121;-87
2023/01/17 09:16:28;;;;;;;;;76.00;53.00;;;;;20.21;59.58;98001.08;110449;1252;19400;-87
2023/01/17 09:18:55;;;;;;;;;55.50;44.00;;;;;20.07;58.72;98004.67;110241;1266;18559;-88
2023/01/17 09:21:23;;;;;;;;;52.00;39.00;;;;;19.95;57.33;98005.39;110317;1266;18791;-81
2023/01/17 09:23:50;;;;;;;;;42.00;34.00;;;;;19.88;56.12;98004.27;110392;1252;22235;-80
2023/01/17 09:26:18;;;;;;;;;37.00;31.00;;;;;19.90;55.43;98002.98;110482;1251;24543;-81
2023/01/17 09:28:45;;;;;;;;;37.50;30.00;;;;;19.96;55.34;98004.75;110455;1266;19079;-82
2023/01/17 09:31:13;;;;;;;;;36.00;27.00;;;;;20.02;55.40;98006.09;110402;1260;19664;-82
2023/01/17 09:33:41;;;;;;;;;36.00;24.00;;;;;20.09;55.35;98010.02;110500;1266;18956;-81
2023/01/17 09:36:09;;;;;;;;;;;;;;;20.11;55.55;98004.64;110327;1252;20180;-81
2023/01/17 09:38:36;;;;;;;;;24.00;19.00;;;;;20.14;55.56;98007.86;110216;1261;19805;-82
2023/01/17 09:41:04;;;;;;;;;25.00;22.00;;;;;20.16;56.07;98005.25;110302;1266;20570;-84
2023/01/17 09:43:31;;;;;;;;;25.00;21.00;;;;;20.18;56.49;98009.22;110337;1253;20866;-83
2023/01/17 09:45:59;;;;;;;;;21.50;19.00;;;;;20.20;57.18;98006.26;110422;1251;19562;-82
2023/01/17 09:48:26;;;;;;;;;24.00;22.00;;;;;20.23;57.81;98010.42;110455;1266;20328;-83
2023/01/17 09:50:54;;;;;;;;;22.00;16.00;;;;;20.22;58.39;98004.42;110432;1252;21410;-79
2023/01/17 09:53:21;;;;;;;;;16.00;13.00;;;;;20.23;58.77;98003.57;110505;1251;20820;-81
2023/01/17 09:55:49;;;;;;;;;20.50;17.50;;;;;20.25;58.80;98010.55;110487;1259;19660;-83
2023/01/17 09:58:17;;;;;;;;;16.00;13.00;;;;;20.25;58.91;98010.45;110383;1266;21245;-82
2023/01/17 10:00:44;;;;;;;;;16.00;12.50;;;;;20.24;59.18;98010.54;110457;1254;21017;-82
2023/01/17 10:03:12;;;;;;;;;15.50;13.00;;;;;20.22;59.27;98011.28;110461;1266;18593;-85
2023/01/17 10:05:39;;;;;;;;;18.00;16.00;;;;;20.24;59.22;98010.48;110303;1260;18963;-82
2023/01/17 10:08:07;;;;;;;;;21.00;15.00;;;;;20.24;59.37;98011.20;110407;1267;24391;-83
2023/01/17 10:10:34;;;;;;;;;20.00;16.00;;;;;20.24;59.52;98007.89;110425;1267;18996;-84
2023/01/17 10:13:02;;;;;;;;;10.00;8.00;;;;;20.26;59.70;98010.64;110477;1266;20150;-83
2023/01/17 10:15:29;;;;;;;;;15.00;12.50;;;;;20.27;59.85;98013.60;110444;1253;22757;-82
2023/01/17 10:17:57;;;;;;;;;8.00;8.00;;;;;20.25;59.85;98017.84;110388;1266;20299;-83
2023/01/17 10:20:24;;;;;;;;;9.00;7.00;;;;;20.14;59.24;98021.23;110468;1252;19628;-82
2023/01/17 10:22:53;;;;;;;;;12.00;12.00;;;;;20.05;58.75;98021.58;110396;1266;19347;-82
2023/01/17 10:25:20;;;;;;;;;9.33;9.33;;;;;19.99;57.84;98023.80;110472;1253;19979;-84
2023/01/17 10:27:48;;;;;;;;;59.50;48.00;;;;;19.97;57.37;98014.92;110552;1251;24271;-85
2023/01/17 10:30:15;;;;;;;;;80.00;62.00;;;;;19.95;56.67;98018.77;110577;1267;19263;-84
2023/01/17 10:32:43;;;;;;;;;92.00;71.50;;;;;19.85;55.44;98023.52;110514;1267;19518;-86
2023/01/17 10:35:10;;;;;;;;;68.00;53.00;;;;;19.65;54.16;98015.23;110402;1266;27309;-87
2023/01/17 10:37:39;;;;;;;;;44.50;42.00;;;;;19.55;52.80;98017.57;110439;1266;19698;-87
2023/01/17 10:40:06;;;;;;;;;36.50;35.00;;;;;19.48;51.55;98021.37;110539;1267;20282;-86
2023/01/17 10:42:34;;;;;;;;;33.00;30.50;;;;;19.39;50.77;98018.04;110473;1251;18849;-85
2023/01/17 10:45:01;;;;;;;;;32.50;31.50;;;;;19.55;50.88;98023.52;110436;1250;20783;-85
2023/01/17 10:47:29;;;;;;;;;27.00;24.00;;;;;19.71;50.94;98021.04;110422;1251;21043;-86
2023/01/17 10:49:57;;;;;;;;;26.00;25.00;;;;;19.83;51.24;98021.67;110448;1267;19001;-87
2023/01/17 10:52:24;;;;;;;;;24.00;22.00;;;;;19.91;51.11;98023.08;110425;1260;19715;-87
2023/01/17 10:54:52;;;;;;;;;24.00;20.00;;;;;19.95;51.65;98022.13;110397;1251;19481;-87
2023/01/17 10:57:19;;;;;;;;;21.00;21.00;;;;;19.99;51.59;98019.17;110460;1266;18800;-87
2023/01/17 10:59:47;;;;;;;;;16.00;15.00;;;;;20.01;52.12;98022.38;110457;1260;20765;-85
2023/01/17 11:02:14;;;;;;;;;15.50;13.00;;;;;20.01;52.44;98021.39;110476;1266;18663;-86
2023/01/17 11:04:43;;;;;;;;;12.50;12.00;;;;;20.00;52.65;98023.13;110362;1253;21448;-84
2023/01/17 11:07:11;;;;;;;;;15.00;13.00;;;;;19.99;52.78;98021.52;110507;1266;19372;-86
2023/01/17 11:09:38;;;;;;;;;15.00;15.00;;;;;20.01;52.78;98021.12;110483;1266;18769;-83
2023/01/17 11:12:05;;;;;;;;;15.00;15.00;;;;;20.04;52.85;98017.70;110409;1266;20308;-86
2023/01/17 11:14:34;;;;;;;;;13.00;13.00;;;;;19.98;52.82;98018.35;110367;1263;22381;-84
2023/01/17 11:17:02;;;;;;;;;13.00;12.67;;;;;19.72;51.63;98013.55;110409;1266;18574;-83
2023/01/17 11:19:31;;;;;;;;;13.00;12.00;;;;;19.58;50.64;98010.67;110519;1254;20960;-84
2023/01/17 11:22:00;;;;;;;;;12.00;12.00;;;;;19.50;49.81;98007.13;110450;1251;19427;-84
2023/01/17 11:24:28;;;;;;;;;12.00;12.00;;;;;19.39;48.75;98011.96;110503;1266;20123;-84
2023/01/17 11:26:56;;;;;;;;;10.00;9.00;;;;;19.31;48.34;98014.58;110429;1266;23837;-84
2023/01/17 11:29:23;;;;;;;;;12.00;10.00;;;;;19.31;47.80;98011.33;110477;1266;20736;-84
2023/01/17 11:31:51;;;;;;;;;9.00;9.00;;;;;19.34;47.38;98009.94;110416;1259;23298;-83
2023/01/17 11:34:18;;;;;;;;;12.50;11.00;;;;;19.30;46.73;98016.26;110483;1266;18605;-83
2023/01/17 11:36:46;;;;;;;;;10.00;10.00;;;;;19.30;46.06;98009.29;110531;1252;23264;-83
2023/01/17 11:39:13;;;;;;;;;10.00;7.00;;;;;19.37;46.23;98011.16;110594;1266;19243;-84
2023/01/17 11:41:41;;;;;;;;;8.00;6.50;;;;;19.30;45.82;98012.34;110563;1266;20233;-82
2023/01/17 11:44:08;;;;;;;;;12.00;10.00;;;;;19.25;45.72;98013.57;110398;1250;22028;-82
2023/01/17 11:46:37;;;;;;;;;9.00;7.00;;;;;19.22;45.46;98012.59;110389;1251;19772;-82
2023/01/17 11:49:05;;;;;;;;;9.00;9.00;;;;;19.19;45.16;98014.60;110429;1251;24224;-82
2023/01/17 11:51:32;;;;;;;;;12.00;10.00;;;;;19.19;45.23;98016.55;110340;1251;23128;-82
2023/01/17 11:54:00;;;;;;;;;6.50;6.00;;;;;19.15;44.58;98015.27;110256;1267;18573;-83
2023/01/17 11:56:27;;;;;;;;;6.00;6.00;;;;;19.33;45.11;98017.23;110416;1260;22471;-80
2023/01/17 11:58:55;;;;;;;;;6.00;6.00;;;;;19.50;45.48;98017.40;110473;1266;27667;-80
2023/01/17 12:01:24;;;;;;;;;6.00;6.00;;;;;19.61;45.70;98021.42;110449;1254;18640;-81
2023/01/17 12:03:51;;;;;;;;;5.33;4.00;;;;;19.66;45.91;98025.52;110439;1258;18845;-80
2023/01/17 12:06:19;;;;;;;;;7.00;5.00;;;;;19.70;46.04;98024.92;110474;1266;19378;-81
2023/01/17 12:08:50;;;;;;;;;6.00;6.00;;;;;19.65;45.93;98025.88;110409;1266;18441;-81
2023/01/17 12:11:17;;;;;;;;;6.00;6.00;;;;;19.54;46.14;98032.80;110359;1254;19955;-81
2023/01/17 12:14:00;;;;;;;;;4.00;4.00;;;;;19.61;46.33;98036.77;110438;1266;20734;-81
2023/01/17 12:16:29;;;;;;;;;6.00;4.00;;;;;19.68;46.31;98035.90;110459;1250;22847;-79
2023/01/17 12:18:57;;;;;;;;;6.00;4.00;;;;;19.71;46.66;98038.31;110569;1266;18755;-81
2023/01/17 12:21:24;;;;;;;;;7.00;6.00;;;;;19.77;47.01;98034.31;110616;1266;20989;-81
2023/01/17 12:23:52;;;;;;;;;4.00;4.00;;;;;19.82;47.35;98030.90;110521;1251;18626;-80
2023/01/17 12:26:20;;;;;;;;;4.00;4.00;;;;;19.84;47.45;98032.91;110351;1251;20886;-81
2023/01/17 12:28:48;;;;;;;;;6.00;4.00;;;;;19.86;47.76;98041.65;110448;1251;21689;-80
2023/01/17 12:31:15;;;;;;;;;4.00;4.00;;;;;19.85;47.93;98044.30;110518;1260;18540;-80
2023/01/17 12:33:44;;;;;;;;;4.00;4.00;;;;;19.88;48.00;98050.08;110500;1267;19995;-80
2023/01/17 12:36:16;;;;;;;;;7.00;6.00;;;;;19.90;48.39;98049.95;110430;1267;19414;-81
2023/01/17 12:38:43;;;;;;;;;9.00;9.00;;;;;19.92;48.91;98054.63;110493;1266;18482;-80
2023/01/17 12:41:11;;;;;;;;;6.00;6.00;;;;;19.97;48.68;98052.14;110494;1260;20954;-80